sensor_id;sensor_type;location;lat;lon;timestamp;temperature;humidity
68139;DHT22;54940;50.842;4.410;2023-02-28T00:00:28;1.90;99.90
68139;DHT22;54940;50.842;4.410;2023-02-28T00:02:54;1.90;99.90
68139;DHT22;54940;50.842;4.410;2023-02-28T00:05:22;1.90;99.90
68139;DHT22;54940;50.842;4.410;2023-02-28T00:07:50;1.80;99.90
68139;DHT22;54940;50.842;4.410;2023-02-28T00:10:20;1.80;99.90
68139;DHT22;54940;50.842;4.410;2023-02-28T00:12:51;1.80;99.90
68139;DHT22;54940;50.842;4.410;2023-02-28T00:15:18;1.70;99.90
68139;DHT22;54940;50.842;4.410;2023-02-28T00:17:44;1.80;99.90
68139;DHT22;54940;50.842;4.410;2023-02-28T00:20:11;1.90;99.90
68139;DHT22;54940;50.842;4.410;2023-02-28T00:22:39;2.00;99.90
68139;DHT22;54940;50.842;4.410;2023-02-28T00:25:06;1.90;99.90
68139;DHT22;54940;50.842;4.410;2023-02-28T00:27:33;1.90;99.90
68139;DHT22;54940;50.842;4.410;2023-02-28T00:29:59;1.80;99.90
68139;DHT22;54940;50.842;4.410;2023-02-28T00:32:24;1.80;99.90
68139;DHT22;54940;50.842;4.410;2023-02-28T00:34:50;1.90;99.90
68139;DHT22;54940;50.842;4.410;2023-02-28T00:37:16;1.90;99.90
68139;DHT22;54940;50.842;4.410;2023-02-28T00:39:41;1.90;99.90
68139;DHT22;54940;50.842;4.410;2023-02-28T00:42:08;1.70;99.90
68139;DHT22;54940;50.842;4.410;2023-02-28T00:44:34;1.90;99.90
68139;DHT22;54940;50.842;4.410;2023-02-28T00:47:00;1.90;99.90
68139;DHT22;54940;50.842;4.410;2023-02-28T00:49:27;1.90;99.90
68139;DHT22;54940;50.842;4.410;2023-02-28T00:51:53;1.70;99.90
68139;DHT22;54940;50.842;4.410;2023-02-28T00:54:20;1.60;99.90
68139;DHT22;54940;50.842;4.410;2023-02-28T00:56:46;1.50;99.90
68139;DHT22;54940;50.842;4.410;2023-02-28T00:59:13;1.70;99.90
68139;DHT22;54940;50.842;4.410;2023-02-28T01:01:39;1.70;99.90
68139;DHT22;54940;50.842;4.410;2023-02-28T01:04:05;1.70;99.90
68139;DHT22;54940;50.842;4.410;2023-02-28T01:06:31;1.70;99.90
68139;DHT22;54940;50.842;4.410;2023-02-28T01:08:57;1.70;99.90
68139;DHT22;54940;50.842;4.410;2023-02-28T01:11:23;1.70;99.90
68139;DHT22;54940;50.842;4.410;2023-02-28T01:13:49;1.80;99.90
68139;DHT22;54940;50.842;4.410;2023-02-28T01:16:15;1.80;99.90
68139;DHT22;54940;50.842;4.410;2023-02-28T01:18:40;1.80;99.90
68139;DHT22;54940;50.842;4.410;2023-02-28T01:21:09;1.80;99.90
68139;DHT22;54940;50.842;4.410;2023-02-28T01:23:35;1.70;99.90
68139;DHT22;54940;50.842;4.410;2023-02-28T01:26:08;1.60;99.90
68139;DHT22;54940;50.842;4.410;2023-02-28T01:28:34;1.70;99.90
68139;DHT22;54940;50.842;4.410;2023-02-28T01:31:00;1.70;99.90
68139;DHT22;54940;50.842;4.410;2023-02-28T01:33:26;1.70;99.90
68139;DHT22;54940;50.842;4.410;2023-02-28T01:35:59;1.70;99.90
68139;DHT22;54940;50.842;4.410;2023-02-28T01:38:24;1.70;99.90
68139;DHT22;54940;50.842;4.410;2023-02-28T01:40:50;1.80;99.90
68139;DHT22;54940;50.842;4.410;2023-02-28T01:46:08;1.80;99.90
68139;DHT22;54940;50.842;4.410;2023-02-28T01:48:46;1.70;99.90
68139;DHT22;54940;50.842;4.410;2023-02-28T01:51:18;1.60;99.90
68139;DHT22;54940;50.842;4.410;2023-02-28T01:53:53;1.50;99.90
68139;DHT22;54940;50.842;4.410;2023-02-28T01:56:25;1.50;99.90
68139;DHT22;54940;50.842;4.410;2023-02-28T01:58:54;1.50;99.90
68139;DHT22;54940;50.842;4.410;2023-02-28T02:01:21;1.50;99.90
68139;DHT22;54940;50.842;4.410;2023-02-28T02:03:55;1.50;99.90
68139;DHT22;54940;50.842;4.410;2023-02-28T02:06:45;1.60;99.90
68139;DHT22;54940;50.842;4.410;2023-02-28T02:09:10;1.50;99.90
68139;DHT22;54940;50.842;4.410;2023-02-28T02:11:36;1.60;99.90
68139;DHT22;54940;50.842;4.410;2023-02-28T02:14:40;1.60;99.90
68139;DHT22;54940;50.842;4.410;2023-02-28T02:17:19;1.40;99.90
68139;DHT22;54940;50.842;4.410;2023-02-28T02:20:58;1.50;99.90
68139;DHT22;54940;50.842;4.410;2023-02-28T02:25:40;1.20;99.90
68139;DHT22;54940;50.842;4.410;2023-02-28T02:36:40;1.50;99.90
68139;DHT22;54940;50.842;4.410;2023-02-28T02:39:23;1.30;99.90
68139;DHT22;54940;50.842;4.410;2023-02-28T02:41:53;1.40;99.90
68139;DHT22;54940;50.842;4.410;2023-02-28T02:46:48;1.30;99.90
68139;DHT22;54940;50.842;4.410;2023-02-28T02:49:24;1.30;99.90
68139;DHT22;54940;50.842;4.410;2023-02-28T02:51:52;1.30;99.90
68139;DHT22;54940;50.842;4.410;2023-02-28T02:54:25;1.30;99.90
68139;DHT22;54940;50.842;4.410;2023-02-28T02:56:55;1.40;99.90
68139;DHT22;54940;50.842;4.410;2023-02-28T02:59:22;1.20;99.90
68139;DHT22;54940;50.842;4.410;2023-02-28T03:01:53;1.30;99.90
68139;DHT22;54940;50.842;4.410;2023-02-28T03:04:22;1.30;99.90
68139;DHT22;54940;50.842;4.410;2023-02-28T03:06:50;1.30;99.90
68139;DHT22;54940;50.842;4.410;2023-02-28T03:09:21;1.40;99.90
68139;DHT22;54940;50.842;4.410;2023-02-28T03:11:47;1.50;99.90
68139;DHT22;54940;50.842;4.410;2023-02-28T03:14:40;1.50;99.90
68139;DHT22;54940;50.842;4.410;2023-02-28T03:25:07;1.40;99.90
68139;DHT22;54940;50.842;4.410;2023-02-28T03:30:52;1.30;99.90
68139;DHT22;54940;50.842;4.410;2023-02-28T03:33:42;1.20;99.90
68139;DHT22;54940;50.842;4.410;2023-02-28T03:36:17;1.30;99.90
68139;DHT22;54940;50.842;4.410;2023-02-28T03:39:04;1.30;99.90
68139;DHT22;54940;50.842;4.410;2023-02-28T03:41:36;1.10;99.90
68139;DHT22;54940;50.842;4.410;2023-02-28T03:44:32;1.20;99.90
68139;DHT22;54940;50.842;4.410;2023-02-28T03:47:12;1.10;99.90
68139;DHT22;54940;50.842;4.410;2023-02-28T03:49:48;1.10;99.90
68139;DHT22;54940;50.842;4.410;2023-02-28T03:52:17;1.20;99.90
68139;DHT22;54940;50.842;4.410;2023-02-28T03:54:53;1.20;99.90
68139;DHT22;54940;50.842;4.410;2023-02-28T03:57:27;1.10;99.90
68139;DHT22;54940;50.842;4.410;2023-02-28T04:00:28;1.20;99.90
68139;DHT22;54940;50.842;4.410;2023-02-28T04:02:54;1.20;99.90
68139;DHT22;54940;50.842;4.410;2023-02-28T04:05:21;1.00;99.90
68139;DHT22;54940;50.842;4.410;2023-02-28T04:07:48;1.10;99.90
68139;DHT22;54940;50.842;4.410;2023-02-28T04:10:15;1.00;99.90
68139;DHT22;54940;50.842;4.410;2023-02-28T04:12:41;1.00;99.90
68139;DHT22;54940;50.842;4.410;2023-02-28T04:15:07;1.00;99.90
68139;DHT22;54940;50.842;4.410;2023-02-28T04:17:33;1.00;99.90
68139;DHT22;54940;50.842;4.410;2023-02-28T04:19:59;1.00;99.90
68139;DHT22;54940;50.842;4.410;2023-02-28T04:22:24;1.00;99.90
68139;DHT22;54940;50.842;4.410;2023-02-28T04:24:53;1.00;99.90
68139;DHT22;54940;50.842;4.410;2023-02-28T04:27:20;1.10;99.90
68139;DHT22;54940;50.842;4.410;2023-02-28T04:29:46;1.10;99.90
68139;DHT22;54940;50.842;4.410;2023-02-28T04:32:12;1.20;99.90
68139;DHT22;54940;50.842;4.410;2023-02-28T04:34:38;1.10;99.90
68139;DHT22;54940;50.842;4.410;2023-02-28T04:37:04;1.00;99.90
68139;DHT22;54940;50.842;4.410;2023-02-28T04:39:30;1.00;99.90
68139;DHT22;54940;50.842;4.410;2023-02-28T04:41:59;1.00;99.90
68139;DHT22;54940;50.842;4.410;2023-02-28T04:44:25;1.10;99.90
68139;DHT22;54940;50.842;4.410;2023-02-28T04:46:50;1.10;99.90
68139;DHT22;54940;50.842;4.410;2023-02-28T04:49:16;1.10;99.90
68139;DHT22;54940;50.842;4.410;2023-02-28T04:51:42;1.20;99.90
68139;DHT22;54940;50.842;4.410;2023-02-28T04:54:08;1.20;99.90
68139;DHT22;54940;50.842;4.410;2023-02-28T04:56:34;1.10;99.90
68139;DHT22;54940;50.842;4.410;2023-02-28T04:58:59;1.10;99.90
68139;DHT22;54940;50.842;4.410;2023-02-28T05:01:27;0.90;99.90
68139;DHT22;54940;50.842;4.410;2023-02-28T05:03:55;1.00;99.90
68139;DHT22;54940;50.842;4.410;2023-02-28T05:06:24;0.90;99.90
68139;DHT22;54940;50.842;4.410;2023-02-28T05:08:50;0.90;99.90
68139;DHT22;54940;50.842;4.410;2023-02-28T05:11:19;1.00;99.90
68139;DHT22;54940;50.842;4.410;2023-02-28T05:13:45;0.90;99.90
68139;DHT22;54940;50.842;4.410;2023-02-28T05:16:11;0.70;99.90
68139;DHT22;54940;50.842;4.410;2023-02-28T05:18:38;0.80;99.90
68139;DHT22;54940;50.842;4.410;2023-02-28T05:21:03;0.70;99.90
68139;DHT22;54940;50.842;4.410;2023-02-28T05:23:29;0.80;99.90
68139;DHT22;54940;50.842;4.410;2023-02-28T05:25:55;0.70;99.90
68139;DHT22;54940;50.842;4.410;2023-02-28T05:28:21;0.80;99.90
68139;DHT22;54940;50.842;4.410;2023-02-28T05:30:47;0.90;99.90
68139;DHT22;54940;50.842;4.410;2023-02-28T05:33:13;0.90;99.90
68139;DHT22;54940;50.842;4.410;2023-02-28T05:35:40;1.00;99.90
68139;DHT22;54940;50.842;4.410;2023-02-28T05:38:06;1.00;99.90
68139;DHT22;54940;50.842;4.410;2023-02-28T05:40:32;1.00;99.90
68139;DHT22;54940;50.842;4.410;2023-02-28T05:42:57;1.00;99.90
68139;DHT22;54940;50.842;4.410;2023-02-28T05:45:23;1.10;99.90
68139;DHT22;54940;50.842;4.410;2023-02-28T05:47:49;1.10;99.90
68139;DHT22;54940;50.842;4.410;2023-02-28T05:50:16;1.00;99.90
68139;DHT22;54940;50.842;4.410;2023-02-28T05:52:41;0.90;99.90
68139;DHT22;54940;50.842;4.410;2023-02-28T05:55:07;0.90;99.90
68139;DHT22;54940;50.842;4.410;2023-02-28T05:57:33;0.90;99.90
68139;DHT22;54940;50.842;4.410;2023-02-28T05:59:59;1.00;99.90
68139;DHT22;54940;50.842;4.410;2023-02-28T06:02:24;0.90;99.90
68139;DHT22;54940;50.842;4.410;2023-02-28T06:04:50;0.80;99.90
68139;DHT22;54940;50.842;4.410;2023-02-28T06:07:16;0.90;99.90
68139;DHT22;54940;50.842;4.410;2023-02-28T06:09:43;0.80;99.90
68139;DHT22;54940;50.842;4.410;2023-02-28T06:12:10;0.80;99.90
68139;DHT22;54940;50.842;4.410;2023-02-28T06:14:36;0.70;99.90
68139;DHT22;54940;50.842;4.410;2023-02-28T06:17:02;0.70;99.90
68139;DHT22;54940;50.842;4.410;2023-02-28T06:19:28;0.80;99.90
68139;DHT22;54940;50.842;4.410;2023-02-28T06:21:56;0.80;99.90
68139;DHT22;54940;50.842;4.410;2023-02-28T06:24:23;0.70;99.90
68139;DHT22;54940;50.842;4.410;2023-02-28T06:26:49;0.70;99.90
68139;DHT22;54940;50.842;4.410;2023-02-28T06:29:15;0.70;99.90
68139;DHT22;54940;50.842;4.410;2023-02-28T06:31:43;0.80;99.90
68139;DHT22;54940;50.842;4.410;2023-02-28T06:34:09;0.90;99.90
68139;DHT22;54940;50.842;4.410;2023-02-28T06:36:37;1.00;99.90
68139;DHT22;54940;50.842;4.410;2023-02-28T06:39:03;0.90;99.90
68139;DHT22;54940;50.842;4.410;2023-02-28T06:41:29;0.90;99.90
68139;DHT22;54940;50.842;4.410;2023-02-28T06:43:55;0.90;99.90
68139;DHT22;54940;50.842;4.410;2023-02-28T06:46:21;0.90;99.90
68139;DHT22;54940;50.842;4.410;2023-02-28T06:48:46;1.00;99.90
68139;DHT22;54940;50.842;4.410;2023-02-28T06:51:21;0.90;99.90
68139;DHT22;54940;50.842;4.410;2023-02-28T06:53:47;1.00;99.90
68139;DHT22;54940;50.842;4.410;2023-02-28T06:56:15;1.00;99.90
68139;DHT22;54940;50.842;4.410;2023-02-28T06:58:41;1.10;99.90
68139;DHT22;54940;50.842;4.410;2023-02-28T07:01:07;1.10;99.90
68139;DHT22;54940;50.842;4.410;2023-02-28T07:03:34;1.20;99.90
68139;DHT22;54940;50.842;4.410;2023-02-28T07:06:00;1.00;99.90
68139;DHT22;54940;50.842;4.410;2023-02-28T07:08:26;1.00;99.90
68139;DHT22;54940;50.842;4.410;2023-02-28T07:10:55;1.10;99.90
68139;DHT22;54940;50.842;4.410;2023-02-28T07:13:22;1.20;99.90
68139;DHT22;54940;50.842;4.410;2023-02-28T07:16:00;1.30;99.90
68139;DHT22;54940;50.842;4.410;2023-02-28T07:18:26;1.30;99.90
68139;DHT22;54940;50.842;4.410;2023-02-28T07:20:52;1.30;99.90
68139;DHT22;54940;50.842;4.410;2023-02-28T07:23:18;1.30;99.90
68139;DHT22;54940;50.842;4.410;2023-02-28T07:25:44;1.30;99.90
68139;DHT22;54940;50.842;4.410;2023-02-28T07:28:11;1.40;99.90
68139;DHT22;54940;50.842;4.410;2023-02-28T07:30:37;1.50;99.90
68139;DHT22;54940;50.842;4.410;2023-02-28T07:33:03;1.50;99.90
68139;DHT22;54940;50.842;4.410;2023-02-28T07:35:29;1.70;99.90
68139;DHT22;54940;50.842;4.410;2023-02-28T07:37:57;1.70;99.90
68139;DHT22;54940;50.842;4.410;2023-02-28T07:40:22;1.80;99.90
68139;DHT22;54940;50.842;4.410;2023-02-28T07:42:48;1.80;99.90
68139;DHT22;54940;50.842;4.410;2023-02-28T07:45:14;1.70;99.90
68139;DHT22;54940;50.842;4.410;2023-02-28T07:47:40;1.80;99.90
68139;DHT22;54940;50.842;4.410;2023-02-28T07:50:08;1.70;99.90
68139;DHT22;54940;50.842;4.410;2023-02-28T07:52:33;1.70;99.90
68139;DHT22;54940;50.842;4.410;2023-02-28T07:54:59;1.60;99.90
68139;DHT22;54940;50.842;4.410;2023-02-28T07:57:25;1.60;99.90
68139;DHT22;54940;50.842;4.410;2023-02-28T07:59:50;1.60;99.90
68139;DHT22;54940;50.842;4.410;2023-02-28T08:02:17;1.60;99.90
68139;DHT22;54940;50.842;4.410;2023-02-28T08:04:44;1.50;99.90
68139;DHT22;54940;50.842;4.410;2023-02-28T08:07:11;1.50;99.90
68139;DHT22;54940;50.842;4.410;2023-02-28T08:09:39;1.50;99.90
68139;DHT22;54940;50.842;4.410;2023-02-28T08:12:05;1.40;99.90
68139;DHT22;54940;50.842;4.410;2023-02-28T08:14:31;1.50;99.90
68139;DHT22;54940;50.842;4.410;2023-02-28T08:16:57;1.50;99.90
68139;DHT22;54940;50.842;4.410;2023-02-28T08:19:22;1.60;99.90
68139;DHT22;54940;50.842;4.410;2023-02-28T08:21:48;1.60;99.90
68139;DHT22;54940;50.842;4.410;2023-02-28T08:24:14;1.60;99.90
68139;DHT22;54940;50.842;4.410;2023-02-28T08:26:39;1.70;99.90
68139;DHT22;54940;50.842;4.410;2023-02-28T08:29:05;1.70;99.90
68139;DHT22;54940;50.842;4.410;2023-02-28T08:31:31;1.90;99.90
68139;DHT22;54940;50.842;4.410;2023-02-28T08:33:56;1.90;99.90
68139;DHT22;54940;50.842;4.410;2023-02-28T08:36:25;2.00;99.90
68139;DHT22;54940;50.842;4.410;2023-02-28T08:38:51;2.00;99.90
68139;DHT22;54940;50.842;4.410;2023-02-28T08:41:17;2.00;99.90
68139;DHT22;54940;50.842;4.410;2023-02-28T08:43:43;1.90;99.90
68139;DHT22;54940;50.842;4.410;2023-02-28T08:46:11;1.90;99.90
68139;DHT22;54940;50.842;4.410;2023-02-28T08:48:37;1.80;99.90
68139;DHT22;54940;50.842;4.410;2023-02-28T08:51:09;1.70;99.90
68139;DHT22;54940;50.842;4.410;2023-02-28T08:53:36;1.70;99.90
68139;DHT22;54940;50.842;4.410;2023-02-28T08:56:11;1.70;99.90
68139;DHT22;54940;50.842;4.410;2023-02-28T08:58:37;1.80;99.90
68139;DHT22;54940;50.842;4.410;2023-02-28T09:01:17;2.00;99.90
68139;DHT22;54940;50.842;4.410;2023-02-28T09:03:44;2.00;99.90
68139;DHT22;54940;50.842;4.410;2023-02-28T09:06:11;2.20;99.90
68139;DHT22;54940;50.842;4.410;2023-02-28T09:08:39;2.10;99.90
68139;DHT22;54940;50.842;4.410;2023-02-28T09:11:05;2.10;99.90
68139;DHT22;54940;50.842;4.410;2023-02-28T09:13:31;2.00;99.90
68139;DHT22;54940;50.842;4.410;2023-02-28T09:16:02;2.00;99.90
68139;DHT22;54940;50.842;4.410;2023-02-28T09:18:29;2.00;99.90
68139;DHT22;54940;50.842;4.410;2023-02-28T09:20:55;2.10;99.90
68139;DHT22;54940;50.842;4.410;2023-02-28T09:23:20;2.20;99.90
68139;DHT22;54940;50.842;4.410;2023-02-28T09:25:53;2.30;99.90
68139;DHT22;54940;50.842;4.410;2023-02-28T09:28:19;2.30;99.90
68139;DHT22;54940;50.842;4.410;2023-02-28T09:30:48;2.30;99.90
68139;DHT22;54940;50.842;4.410;2023-02-28T09:33:14;2.30;99.90
68139;DHT22;54940;50.842;4.410;2023-02-28T09:35:41;2.30;99.90
68139;DHT22;54940;50.842;4.410;2023-02-28T09:38:07;2.30;99.90
68139;DHT22;54940;50.842;4.410;2023-02-28T09:40:38;2.40;99.90
68139;DHT22;54940;50.842;4.410;2023-02-28T09:43:05;2.60;99.90
68139;DHT22;54940;50.842;4.410;2023-02-28T09:45:40;2.60;99.90
68139;DHT22;54940;50.842;4.410;2023-02-28T09:48:33;2.50;99.90
68139;DHT22;54940;50.842;4.410;2023-02-28T09:53:51;2.40;99.90
68139;DHT22;54940;50.842;4.410;2023-02-28T09:56:28;2.40;99.90
68139;DHT22;54940;50.842;4.410;2023-02-28T10:05:02;2.60;99.90
68139;DHT22;54940;50.842;4.410;2023-02-28T10:07:40;2.80;99.90
68139;DHT22;54940;50.842;4.410;2023-02-28T10:10:45;2.70;99.90
68139;DHT22;54940;50.842;4.410;2023-02-28T10:19:13;2.70;99.90
68139;DHT22;54940;50.842;4.410;2023-02-28T10:21:47;2.70;99.90
68139;DHT22;54940;50.842;4.410;2023-02-28T10:26:48;2.60;99.90
68139;DHT22;54940;50.842;4.410;2023-02-28T10:29:14;2.70;99.90
68139;DHT22;54940;50.842;4.410;2023-02-28T10:31:40;2.60;99.90
68139;DHT22;54940;50.842;4.410;2023-02-28T10:34:07;2.70;99.90
68139;DHT22;54940;50.842;4.410;2023-02-28T10:36:32;2.80;99.90
68139;DHT22;54940;50.842;4.410;2023-02-28T10:38:58;3.00;99.90
68139;DHT22;54940;50.842;4.410;2023-02-28T10:44:17;2.90;99.90
68139;DHT22;54940;50.842;4.410;2023-02-28T10:46:45;2.90;99.90
68139;DHT22;54940;50.842;4.410;2023-02-28T10:49:24;2.90;99.90
68139;DHT22;54940;50.842;4.410;2023-02-28T10:51:59;3.10;99.90
68139;DHT22;54940;50.842;4.410;2023-02-28T10:54:36;3.10;99.90
68139;DHT22;54940;50.842;4.410;2023-02-28T10:57:30;3.00;99.90
68139;DHT22;54940;50.842;4.410;2023-02-28T11:00:20;3.20;99.90
68139;DHT22;54940;50.842;4.410;2023-02-28T11:02:47;3.20;99.90
68139;DHT22;54940;50.842;4.410;2023-02-28T11:05:34;3.30;99.90
68139;DHT22;54940;50.842;4.410;2023-02-28T11:08:13;3.40;99.90
68139;DHT22;54940;50.842;4.410;2023-02-28T11:10:48;3.60;99.90
68139;DHT22;54940;50.842;4.410;2023-02-28T11:13:20;3.60;99.90
68139;DHT22;54940;50.842;4.410;2023-02-28T11:15:53;3.70;99.90
68139;DHT22;54940;50.842;4.410;2023-02-28T11:18:29;3.80;99.90
68139;DHT22;54940;50.842;4.410;2023-02-28T11:20:57;3.80;99.90
68139;DHT22;54940;50.842;4.410;2023-02-28T11:23:26;3.90;99.90
68139;DHT22;54940;50.842;4.410;2023-02-28T11:25:55;4.00;99.90
68139;DHT22;54940;50.842;4.410;2023-02-28T11:28:33;4.10;99.90
68139;DHT22;54940;50.842;4.410;2023-02-28T11:33:55;4.50;99.90
68139;DHT22;54940;50.842;4.410;2023-02-28T11:36:25;4.60;99.90
68139;DHT22;54940;50.842;4.410;2023-02-28T11:38:56;4.60;99.90
68139;DHT22;54940;50.842;4.410;2023-02-28T11:46:44;4.90;99.90
68139;DHT22;54940;50.842;4.410;2023-02-28T11:49:32;5.10;99.90
68139;DHT22;54940;50.842;4.410;2023-02-28T12:05:37;5.00;99.90
68139;DHT22;54940;50.842;4.410;2023-02-28T12:08:43;5.20;99.90
68139;DHT22;54940;50.842;4.410;2023-02-28T12:17:01;5.50;99.90
68139;DHT22;54940;50.842;4.410;2023-02-28T12:27:41;6.10;98.90
68139;DHT22;54940;50.842;4.410;2023-02-28T12:30:28;6.20;98.50
68139;DHT22;54940;50.842;4.410;2023-02-28T12:38:22;6.60;99.90
68139;DHT22;54940;50.842;4.410;2023-02-28T12:43:22;6.60;94.80
68139;DHT22;54940;50.842;4.410;2023-02-28T12:45:52;6.40;94.60
68139;DHT22;54940;50.842;4.410;2023-02-28T12:48:33;6.30;98.20
68139;DHT22;54940;50.842;4.410;2023-02-28T12:51:03;6.20;98.70
68139;DHT22;54940;50.842;4.410;2023-02-28T12:56:29;6.30;97.20
68139;DHT22;54940;50.842;4.410;2023-02-28T12:59:07;6.10;98.00
68139;DHT22;54940;50.842;4.410;2023-02-28T13:01:49;6.10;99.90
68139;DHT22;54940;50.842;4.410;2023-02-28T13:09:59;5.90;96.30
68139;DHT22;54940;50.842;4.410;2023-02-28T13:12:26;5.60;97.60
68139;DHT22;54940;50.842;4.410;2023-02-28T13:15:05;5.60;99.60
68139;DHT22;54940;50.842;4.410;2023-02-28T13:17:32;5.60;98.40
68139;DHT22;54940;50.842;4.410;2023-02-28T13:19:59;5.60;97.90
68139;DHT22;54940;50.842;4.410;2023-02-28T13:24:55;5.30;96.00
68139;DHT22;54940;50.842;4.410;2023-02-28T13:27:36;5.30;97.80
68139;DHT22;54940;50.842;4.410;2023-02-28T13:33:30;5.30;98.40
68139;DHT22;54940;50.842;4.410;2023-02-28T13:39:03;5.40;96.30
68139;DHT22;54940;50.842;4.410;2023-02-28T13:41:48;5.30;97.60
68139;DHT22;54940;50.842;4.410;2023-02-28T13:44:21;5.40;94.80
68139;DHT22;54940;50.842;4.410;2023-02-28T14:08:59;4.90;96.70
68139;DHT22;54940;50.842;4.410;2023-02-28T14:11:34;4.80;98.00
68139;DHT22;54940;50.842;4.410;2023-02-28T14:14:01;4.90;95.20
68139;DHT22;54940;50.842;4.410;2023-02-28T14:16:38;4.90;94.30
68139;DHT22;54940;50.842;4.410;2023-02-28T14:19:23;4.90;97.10
68139;DHT22;54940;50.842;4.410;2023-02-28T14:24:47;4.90;96.20
68139;DHT22;54940;50.842;4.410;2023-02-28T14:41:17;4.90;96.80
68139;DHT22;54940;50.842;4.410;2023-02-28T14:43:58;4.70;98.00
68139;DHT22;54940;50.842;4.410;2023-02-28T14:46:40;4.70;98.40
68139;DHT22;54940;50.842;4.410;2023-02-28T14:49:12;4.60;99.10
68139;DHT22;54940;50.842;4.410;2023-02-28T14:51:38;4.60;99.50
68139;DHT22;54940;50.842;4.410;2023-02-28T14:54:04;4.80;97.00
68139;DHT22;54940;50.842;4.410;2023-02-28T14:56:36;5.00;95.50
68139;DHT22;54940;50.842;4.410;2023-02-28T14:59:03;4.90;98.30
68139;DHT22;54940;50.842;4.410;2023-02-28T15:01:29;4.90;98.60
68139;DHT22;54940;50.842;4.410;2023-02-28T15:04:04;4.90;98.40
68139;DHT22;54940;50.842;4.410;2023-02-28T15:06:31;5.00;95.30
68139;DHT22;54940;50.842;4.410;2023-02-28T15:09:26;4.90;95.30
68139;DHT22;54940;50.842;4.410;2023-02-28T15:11:52;5.00;97.50
68139;DHT22;54940;50.842;4.410;2023-02-28T15:14:21;5.00;95.30
68139;DHT22;54940;50.842;4.410;2023-02-28T15:16:53;4.90;95.70
68139;DHT22;54940;50.842;4.410;2023-02-28T15:19:27;4.90;98.00
68139;DHT22;54940;50.842;4.410;2023-02-28T15:22:08;4.90;98.10
68139;DHT22;54940;50.842;4.410;2023-02-28T15:24:49;4.80;98.30
68139;DHT22;54940;50.842;4.410;2023-02-28T15:29:49;4.80;99.30
68139;DHT22;54940;50.842;4.410;2023-02-28T15:32:37;4.80;98.40
68139;DHT22;54940;50.842;4.410;2023-02-28T15:37:54;4.80;99.90
68139;DHT22;54940;50.842;4.410;2023-02-28T15:40:29;4.90;99.70
68139;DHT22;54940;50.842;4.410;2023-02-28T15:43:00;4.70;99.90
68139;DHT22;54940;50.842;4.410;2023-02-28T15:45:33;4.60;99.90
68139;DHT22;54940;50.842;4.410;2023-02-28T15:48:03;4.70;99.90
68139;DHT22;54940;50.842;4.410;2023-02-28T15:50:29;4.60;99.90
68139;DHT22;54940;50.842;4.410;2023-02-28T15:52:55;4.60;99.90
68139;DHT22;54940;50.842;4.410;2023-02-28T15:55:24;4.60;99.90
68139;DHT22;54940;50.842;4.410;2023-02-28T15:57:54;4.70;99.90
68139;DHT22;54940;50.842;4.410;2023-02-28T16:00:26;4.50;99.90
68139;DHT22;54940;50.842;4.410;2023-02-28T16:02:52;4.40;99.90
68139;DHT22;54940;50.842;4.410;2023-02-28T16:05:26;4.60;99.90
68139;DHT22;54940;50.842;4.410;2023-02-28T16:08:13;4.60;99.90
68139;DHT22;54940;50.842;4.410;2023-02-28T16:10:39;4.50;99.90
68139;DHT22;54940;50.842;4.410;2023-02-28T16:13:05;4.40;99.90
68139;DHT22;54940;50.842;4.410;2023-02-28T16:15:37;4.40;99.80
68139;DHT22;54940;50.842;4.410;2023-02-28T16:18:11;4.50;99.90
68139;DHT22;54940;50.842;4.410;2023-02-28T16:20:37;4.60;99.80
68139;DHT22;54940;50.842;4.410;2023-02-28T16:23:02;4.70;99.50
68139;DHT22;54940;50.842;4.410;2023-02-28T16:25:37;4.60;99.90
68139;DHT22;54940;50.842;4.410;2023-02-28T16:28:03;4.70;99.30
68139;DHT22;54940;50.842;4.410;2023-02-28T16:30:30;4.60;99.90
68139;DHT22;54940;50.842;4.410;2023-02-28T16:32:59;4.60;99.90
68139;DHT22;54940;50.842;4.410;2023-02-28T16:35:25;4.60;99.90
68139;DHT22;54940;50.842;4.410;2023-02-28T16:37:51;4.60;99.90
68139;DHT22;54940;50.842;4.410;2023-02-28T16:40:20;4.60;99.90
68139;DHT22;54940;50.842;4.410;2023-02-28T16:42:48;4.60;99.90
68139;DHT22;54940;50.842;4.410;2023-02-28T16:45:18;4.40;99.90
68139;DHT22;54940;50.842;4.410;2023-02-28T16:47:45;4.40;99.90
68139;DHT22;54940;50.842;4.410;2023-02-28T16:50:22;4.20;99.90
68139;DHT22;54940;50.842;4.410;2023-02-28T16:52:49;4.10;99.90
68139;DHT22;54940;50.842;4.410;2023-02-28T16:55:17;4.20;99.90
68139;DHT22;54940;50.842;4.410;2023-02-28T16:57:43;4.00;99.90
68139;DHT22;54940;50.842;4.410;2023-02-28T17:00:12;4.10;99.90
68139;DHT22;54940;50.842;4.410;2023-02-28T17:02:38;4.20;99.90
68139;DHT22;54940;50.842;4.410;2023-02-28T17:05:04;4.20;99.90
68139;DHT22;54940;50.842;4.410;2023-02-28T17:07:30;4.20;99.90
68139;DHT22;54940;50.842;4.410;2023-02-28T17:09:55;4.20;99.90
68139;DHT22;54940;50.842;4.410;2023-02-28T17:12:21;4.20;99.90
68139;DHT22;54940;50.842;4.410;2023-02-28T17:14:47;4.30;99.90
68139;DHT22;54940;50.842;4.410;2023-02-28T17:17:18;4.20;99.90
68139;DHT22;54940;50.842;4.410;2023-02-28T17:19:45;4.20;99.90
68139;DHT22;54940;50.842;4.410;2023-02-28T17:22:11;4.20;99.90
68139;DHT22;54940;50.842;4.410;2023-02-28T17:24:37;4.20;99.90
68139;DHT22;54940;50.842;4.410;2023-02-28T17:27:03;4.20;99.90
68139;DHT22;54940;50.842;4.410;2023-02-28T17:29:29;4.10;99.90
68139;DHT22;54940;50.842;4.410;2023-02-28T17:31:54;4.10;99.90
68139;DHT22;54940;50.842;4.410;2023-02-28T17:34:20;4.10;99.90
68139;DHT22;54940;50.842;4.410;2023-02-28T17:36:48;4.20;99.90
68139;DHT22;54940;50.842;4.410;2023-02-28T17:39:15;4.00;99.90
68139;DHT22;54940;50.842;4.410;2023-02-28T17:41:45;3.90;99.90
68139;DHT22;54940;50.842;4.410;2023-02-28T17:44:11;3.90;99.90
68139;DHT22;54940;50.842;4.410;2023-02-28T17:46:37;3.90;99.90
68139;DHT22;54940;50.842;4.410;2023-02-28T17:49:02;3.90;99.90
68139;DHT22;54940;50.842;4.410;2023-02-28T17:51:28;3.80;99.90
68139;DHT22;54940;50.842;4.410;2023-02-28T17:53:54;3.80;99.90
68139;DHT22;54940;50.842;4.410;2023-02-28T17:56:24;3.90;99.90
68139;DHT22;54940;50.842;4.410;2023-02-28T17:58:52;3.90;99.90
68139;DHT22;54940;50.842;4.410;2023-02-28T18:01:18;3.80;99.90
68139;DHT22;54940;50.842;4.410;2023-02-28T18:03:45;3.70;99.90
68139;DHT22;54940;50.842;4.410;2023-02-28T18:06:25;3.70;99.90
68139;DHT22;54940;50.842;4.410;2023-02-28T18:08:53;3.70;99.90
68139;DHT22;54940;50.842;4.410;2023-02-28T18:11:20;3.60;99.90
68139;DHT22;54940;50.842;4.410;2023-02-28T18:13:52;3.60;99.90
68139;DHT22;54940;50.842;4.410;2023-02-28T18:16:19;3.50;99.90
68139;DHT22;54940;50.842;4.410;2023-02-28T18:18:44;3.50;99.90
68139;DHT22;54940;50.842;4.410;2023-02-28T18:21:12;3.60;99.90
68139;DHT22;54940;50.842;4.410;2023-02-28T18:23:39;3.60;99.90
68139;DHT22;54940;50.842;4.410;2023-02-28T18:26:15;3.60;99.90
68139;DHT22;54940;50.842;4.410;2023-02-28T18:28:41;3.40;99.90
68139;DHT22;54940;50.842;4.410;2023-02-28T18:31:10;3.50;99.90
68139;DHT22;54940;50.842;4.410;2023-02-28T18:33:36;3.50;99.90